createdAt,value
2023-11-30T00:01:37.436Z,97866.50
2023-11-30T00:04:05.039Z,97878.44
2023-11-30T00:06:40.506Z,97866.28
2023-11-30T00:09:12.435Z,97862.66
2023-11-30T00:11:48.911Z,97862.66
2023-11-30T00:14:17.406Z,97849.38
2023-11-30T00:16:45.930Z,97850.22
2023-11-30T00:19:13.238Z,97852.97
2023-11-30T00:21:40.383Z,97861.03
2023-11-30T00:24:09.940Z,97857.28
2023-11-30T00:26:37.135Z,97857.13
2023-11-30T00:29:06.965Z,97846.38
2023-11-30T00:31:34.276Z,97855.75
2023-11-30T00:34:07.338Z,97861.88
2023-11-30T00:36:34.588Z,97834.06
2023-11-30T00:39:09.715Z,97842.38
2023-11-30T00:41:39.309Z,97842.25
2023-11-30T00:44:06.872Z,97843.56
2023-11-30T00:46:34.262Z,97832.28
2023-11-30T00:49:03.913Z,97830.06
2023-11-30T00:51:34.781Z,97828.69
2023-11-30T00:54:05.306Z,97819.28
2023-11-30T00:56:33.973Z,97815.81
2023-11-30T00:59:10.775Z,97815.13
2023-11-30T01:04:20.578Z,97807.41
2023-11-30T01:06:57.192Z,97822.88
2023-11-30T01:09:36.442Z,97809.34
2023-11-30T01:12:04.509Z,97793.28
2023-11-30T01:14:36.212Z,97803.38
2023-11-30T01:17:13.214Z,97798.94
2023-11-30T01:19:45.341Z,97791.25
2023-11-30T01:22:14.599Z,97785.34
2023-11-30T01:24:45.319Z,97792.47
2023-11-30T01:27:13.004Z,97794.97
2023-11-30T01:29:42.170Z,97769.81
2023-11-30T01:32:12.076Z,97795.91
2023-11-30T01:34:39.739Z,97795.25
2023-11-30T01:37:07.497Z,97796.34
2023-11-30T01:39:34.812Z,97795.53
2023-11-30T01:42:06.914Z,97790.66
2023-11-30T01:44:34.489Z,97784.47
2023-11-30T01:47:02.781Z,97789.28
2023-11-30T01:49:30.388Z,97778.50
2023-11-30T01:52:00.194Z,97784.75
2023-11-30T01:54:33.025Z,97790.28
2023-11-30T01:57:00.575Z,97778.78
2023-11-30T01:59:33.988Z,97779.09
2023-11-30T02:02:02.199Z,97774.53
2023-11-30T02:04:34.208Z,97783.09
2023-11-30T02:07:01.504Z,97772.44
2023-11-30T02:09:32.008Z,97765.66
2023-11-30T02:11:59.506Z,97774.78
2023-11-30T02:14:32.477Z,97772.59
2023-11-30T02:17:05.284Z,97781.41
2023-11-30T02:19:32.528Z,97788.03
2023-11-30T02:22:02.785Z,97765.59
2023-11-30T02:24:33.015Z,97764.31
2023-11-30T02:27:00.496Z,97761.53
2023-11-30T02:29:37.041Z,97779.09
2023-11-30T02:32:04.200Z,97764.28
2023-11-30T02:34:31.375Z,97767.56
2023-11-30T02:37:00.145Z,97774.53
2023-11-30T02:39:27.687Z,97756.41
2023-11-30T02:41:55.368Z,97770.34
2023-11-30T02:44:29.991Z,97761.50
2023-11-30T02:49:47.688Z,97759.25
2023-11-30T02:52:27.968Z,97761.22
2023-11-30T02:55:04.900Z,97772.81
2023-11-30T02:57:33.789Z,97770.44
2023-11-30T03:02:43.126Z,97753.19
2023-11-30T03:05:15.071Z,97764.22
2023-11-30T03:07:44.893Z,97757.19
2023-11-30T03:10:14.956Z,97754.41
2023-11-30T03:15:34.464Z,97759.50
2023-11-30T03:18:04.551Z,97741.09
2023-11-30T03:20:37.389Z,97747.94
2023-11-30T03:23:08.259Z,97757.03
2023-11-30T03:25:37.455Z,97753.97
2023-11-30T03:28:08.776Z,97757.56
2023-11-30T03:30:41.713Z,97754.63
2023-11-30T03:33:14.045Z,97757.63
2023-11-30T03:35:43.538Z,97749.91
2023-11-30T03:38:15.876Z,97758.06
2023-11-30T03:40:52.463Z,97745.03
2023-11-30T03:43:28.723Z,97760.53
2023-11-30T03:45:55.857Z,97757.19
2023-11-30T03:48:22.973Z,97749.47
2023-11-30T03:50:50.099Z,97754.06
2023-11-30T03:53:17.248Z,97753.50
2023-11-30T03:55:44.373Z,97751.25
2023-11-30T03:58:14.015Z,97753.06
2023-11-30T04:00:41.256Z,97751.38
2023-11-30T04:03:09.161Z,97741.41
2023-11-30T04:05:36.295Z,97754.84
2023-11-30T04:08:03.615Z,97737.66
2023-11-30T04:10:30.795Z,97759.13
2023-11-30T04:12:58.006Z,97748.47
2023-11-30T04:15:25.314Z,97748.16
2023-11-30T04:17:53.929Z,97746.66
2023-11-30T04:20:21.129Z,97745.16
2023-11-30T04:22:48.326Z,97754.91
2023-11-30T04:25:15.529Z,97752.00
2023-11-30T04:27:42.705Z,97749.00
2023-11-30T04:30:09.958Z,97750.63
2023-11-30T04:32:37.107Z,97743.34
2023-11-30T04:35:04.366Z,97741.22
2023-11-30T04:37:31.495Z,97734.56
2023-11-30T04:39:59.076Z,97743.13
2023-11-30T04:42:27.188Z,97746.75
2023-11-30T04:44:54.393Z,97752.00
2023-11-30T04:47:21.543Z,97738.59
2023-11-30T04:49:48.768Z,97743.72
2023-11-30T04:52:21.385Z,97746.50
2023-11-30T04:54:48.578Z,97740.66
2023-11-30T04:57:15.978Z,97748.59
2023-11-30T04:59:43.674Z,97749.91
2023-11-30T05:02:10.827Z,97748.66
2023-11-30T05:04:38.679Z,97744.78
2023-11-30T05:07:05.889Z,97741.69
2023-11-30T05:09:33.824Z,97744.13
2023-11-30T05:12:01.126Z,97742.88
2023-11-30T05:14:28.547Z,97748.22
2023-11-30T05:16:55.808Z,97755.97
2023-11-30T05:19:23.031Z,97747.94
2023-11-30T05:21:50.384Z,97755.31
2023-11-30T05:24:18.746Z,97749.88
2023-11-30T05:26:45.840Z,97750.78
2023-11-30T05:29:12.996Z,97758.84
2023-11-30T05:31:40.155Z,97755.59
2023-11-30T05:34:07.360Z,97751.97
2023-11-30T05:36:34.638Z,97765.50
2023-11-30T05:39:01.929Z,97752.03
2023-11-30T05:41:29.418Z,97763.59
2023-11-30T05:43:56.644Z,97766.56
2023-11-30T05:46:24.154Z,97764.13
2023-11-30T05:48:51.357Z,97773.53
2023-11-30T05:51:18.509Z,97772.38
2023-11-30T05:53:48.318Z,97765.84
2023-11-30T05:56:15.447Z,97773.38
2023-11-30T05:58:44.920Z,97765.31
2023-11-30T06:01:12.846Z,97771.41
2023-11-30T06:03:40.189Z,97776.53
2023-11-30T06:06:09.195Z,97772.28
2023-11-30T06:08:36.328Z,97779.06
2023-11-30T06:11:03.542Z,97760.47
2023-11-30T06:13:30.726Z,97773.66
2023-11-30T06:15:57.907Z,97779.44
2023-11-30T06:18:26.211Z,97778.28
2023-11-30T06:20:53.779Z,97768.13
2023-11-30T06:23:21.659Z,97776.47
2023-11-30T06:25:49.244Z,97784.44
2023-11-30T06:28:17.644Z,97772.91
2023-11-30T06:30:47.190Z,97780.69
2023-11-30T06:33:14.793Z,97781.34
2023-11-30T06:35:42.827Z,97781.03
2023-11-30T06:38:14.150Z,97780.69
2023-11-30T06:40:41.330Z,97795.16
2023-11-30T06:43:08.839Z,97788.13
2023-11-30T06:45:36.306Z,97799.94
2023-11-30T06:48:06.894Z,97793.84
2023-11-30T06:50:34.380Z,97793.22
2023-11-30T06:53:02.138Z,97801.47
2023-11-30T06:55:34.352Z,97802.47
2023-11-30T06:58:08.927Z,97807.41
2023-11-30T07:00:38.770Z,97804.13
2023-11-30T07:03:42.603Z,97813.97
2023-11-30T07:06:09.502Z,97808.69
2023-11-30T07:08:40.764Z,97819.63
2023-11-30T07:11:15.777Z,97813.03
2023-11-30T07:13:43.153Z,97818.94
2023-11-30T07:16:17.940Z,97816.97
2023-11-30T07:18:49.792Z,97818.63
2023-11-30T07:21:21.669Z,97821.25
2023-11-30T07:23:52.908Z,97825.84
2023-11-30T07:26:28.044Z,97814.34
2023-11-30T07:29:00.527Z,97825.72
2023-11-30T07:31:29.542Z,97823.91
2023-11-30T07:33:56.698Z,97823.38
2023-11-30T07:36:28.449Z,97825.34
2023-11-30T07:38:57.846Z,97823.75
2023-11-30T07:41:25.208Z,97842.66
2023-11-30T07:43:57.575Z,97830.47
2023-11-30T07:46:33.035Z,97834.00
2023-11-30T07:49:02.654Z,97853.59
2023-11-30T07:51:30.884Z,97843.06
2023-11-30T07:54:00.873Z,97852.53
2023-11-30T07:56:30.561Z,97845.63
2023-11-30T07:58:57.708Z,97837.56
2023-11-30T08:01:27.654Z,97855.09
2023-11-30T08:04:00.197Z,97849.09
2023-11-30T08:06:32.783Z,97851.72
2023-11-30T08:09:08.754Z,97857.13
2023-11-30T08:11:40.897Z,97861.56
2023-11-30T08:14:14.069Z,97867.50
2023-11-30T08:16:47.283Z,97864.78
2023-11-30T08:19:43.295Z,97870.06
2023-11-30T08:22:12.466Z,97866.81
2023-11-30T08:24:48.744Z,97867.88
2023-11-30T08:27:31.500Z,97880.19
2023-11-30T08:30:16.280Z,97877.69
2023-11-30T08:33:07.022Z,97875.31
2023-11-30T08:35:40.163Z,97876.75
2023-11-30T08:38:12.086Z,97877.31
2023-11-30T08:43:27.477Z,97872.69
2023-11-30T08:46:03.329Z,97871.84
2023-11-30T08:48:41.029Z,97863.28
2023-11-30T08:51:28.126Z,97872.97
2023-11-30T08:53:55.767Z,97878.84
2023-11-30T08:56:32.200Z,97873.44
2023-11-30T08:59:05.325Z,97879.81
2023-11-30T09:01:36.406Z,97874.88
2023-11-30T09:04:10.476Z,97875.97
2023-11-30T09:06:45.397Z,97869.44
2023-11-30T09:09:18.194Z,97872.06
2023-11-30T09:11:56.530Z,97873.16
2023-11-30T09:17:29.603Z,97870.91
2023-11-30T09:20:14.939Z,97876.59
2023-11-30T09:22:42.337Z,97874.19
2023-11-30T09:25:25.175Z,97862.47
2023-11-30T09:28:04.562Z,97875.78
2023-11-30T09:30:40.945Z,97885.59
2023-11-30T09:33:23.069Z,97890.66
2023-11-30T09:36:00.507Z,97887.19
2023-11-30T09:38:44.202Z,97888.22
2023-11-30T09:41:18.647Z,97886.63
2023-11-30T09:43:48.879Z,97892.91
2023-11-30T09:46:30.871Z,97894.63
2023-11-30T09:49:03.229Z,97899.09
2023-11-30T09:51:42.864Z,97897.88
2023-11-30T09:55:16.004Z,97902.03
2023-11-30T09:57:10.481Z,97902.91
2023-11-30T09:59:59.863Z,97915.28
2023-11-30T10:02:58.470Z,97919.53
2023-11-30T10:05:41.210Z,97913.50
2023-11-30T10:11:49.433Z,97915.84
2023-11-30T10:17:11.726Z,97918.66
2023-11-30T10:22:51.233Z,97914.16
2023-11-30T10:25:58.981Z,97913.63
2023-11-30T10:33:09.989Z,97931.94
2023-11-30T10:36:07.980Z,97926.69
2023-11-30T10:38:44.745Z,97937.13
2023-11-30T10:41:29.974Z,97943.25
2023-11-30T10:44:01.094Z,97943.34
2023-11-30T10:46:33.132Z,97949.63
2023-11-30T10:49:05.719Z,97936.09
2023-11-30T10:51:34.795Z,97945.63
2023-11-30T10:54:16.655Z,97928.25
2023-11-30T10:56:55.729Z,97948.69
2023-11-30T10:59:26.109Z,97947.44
2023-11-30T11:04:44.049Z,97947.03
2023-11-30T11:10:29.470Z,97960.00
2023-11-30T11:13:09.550Z,97968.00
2023-11-30T11:15:48.212Z,97957.78
2023-11-30T11:28:54.205Z,97981.25
2023-11-30T11:32:34.009Z,97980.94
2023-11-30T11:38:09.902Z,97999.06
2023-11-30T11:52:50.456Z,98010.56
2023-11-30T11:55:36.934Z,98029.97
2023-11-30T11:58:13.399Z,98023.88
2023-11-30T12:00:57.885Z,98016.03
2023-11-30T12:10:03.492Z,98040.00
2023-11-30T12:15:27.816Z,98022.34
2023-11-30T12:21:13.967Z,98048.00
2023-11-30T12:24:12.198Z,98050.19
2023-11-30T12:26:50.480Z,98056.66
2023-11-30T12:29:31.103Z,98048.78
2023-11-30T12:31:58.647Z,98052.50
2023-11-30T12:34:30.959Z,98061.44
2023-11-30T12:40:25.631Z,98065.28
2023-11-30T12:43:02.468Z,98063.38
2023-11-30T12:45:30.316Z,98050.06
2023-11-30T12:53:44.212Z,98072.03
2023-11-30T12:56:23.951Z,98074.22
2023-11-30T12:58:55.299Z,98083.06
2023-11-30T13:07:14.394Z,98083.66
2023-11-30T13:09:56.717Z,98080.34
2023-11-30T13:17:59.188Z,98090.31
2023-11-30T15:45:15.059Z,98176.22
2023-11-30T15:48:06.412Z,98175.41
2023-11-30T15:50:42.942Z,98193.13
2023-11-30T15:53:14.990Z,98192.88
2023-11-30T16:23:55.118Z,98206.09
2023-11-30T17:01:06.421Z,98219.91
2023-11-30T18:56:36.248Z,98283.84
2023-11-30T18:59:23.460Z,98289.91
2023-11-30T19:02:02.045Z,98295.97
2023-11-30T19:11:53.514Z,98301.91
2023-11-30T19:17:28.559Z,98292.66
2023-11-30T19:21:09.798Z,98308.44
2023-11-30T19:24:13.839Z,98299.66
2023-11-30T19:29:26.057Z,98306.19
2023-11-30T19:35:02.968Z,98329.53
2023-11-30T19:37:38.051Z,98332.19
2023-11-30T19:45:47.243Z,98337.06
2023-11-30T19:48:26.150Z,98346.31
2023-11-30T19:53:42.162Z,98353.09
2023-11-30T20:10:10.004Z,98348.84
2023-11-30T20:15:25.094Z,98363.66
2023-11-30T20:23:30.578Z,98368.69
2023-11-30T20:25:59.396Z,98385.84
2023-11-30T20:28:32.579Z,98381.94
2023-11-30T20:36:26.924Z,98385.63
2023-11-30T21:07:07.730Z,98408.69
2023-11-30T21:09:41.420Z,98411.16
2023-11-30T21:12:11.698Z,98420.41
2023-11-30T21:32:28.572Z,98427.09
2023-11-30T21:34:59.823Z,98435.19
2023-11-30T21:37:33.991Z,98416.19
2023-11-30T21:40:02.481Z,98432.25
2023-11-30T21:42:37.144Z,98432.03
2023-11-30T21:45:06.169Z,98422.63
2023-11-30T21:47:49.702Z,98429.34
2023-11-30T21:50:25.466Z,98432.56
2023-11-30T21:55:42.686Z,98440.41
2023-11-30T21:58:13.263Z,98428.50
2023-11-30T22:48:28.561Z,98442.94
2023-11-30T22:51:02.420Z,98444.50
2023-11-30T22:59:13.066Z,98451.31
2023-11-30T23:01:50.441Z,98447.88
2023-11-30T23:04:21.921Z,98460.91
2023-11-30T23:18:31.415Z,98471.75
2023-11-30T23:21:23.270Z,98459.66
2023-11-30T23:23:55.409Z,98466.53
2023-11-30T23:26:47.322Z,98462.66
2023-11-30T23:29:22.041Z,98459.44
2023-11-30T23:31:49.584Z,98468.53
2023-11-30T23:34:17.017Z,98474.31
2023-11-30T23:36:49.992Z,98477.22
2023-11-30T23:39:25.240Z,98473.66
2023-11-30T23:41:54.857Z,98472.09
2023-11-30T23:44:25.283Z,98468.00
2023-11-30T23:46:52.590Z,98471.75
2023-11-30T23:49:21.107Z,98476.28
2023-11-30T23:51:57.581Z,98474.09
2023-11-30T23:54:27.599Z,98473.88
